sensor_id;sensor_type;location;lat;lon;timestamp;temperature;humidity
14016;DHT22;7083;48.854;9.158;2024-02-26T00:01:46;6.20;99.90
14016;DHT22;7083;48.854;9.158;2024-02-26T00:04:12;6.20;99.90
14016;DHT22;7083;48.854;9.158;2024-02-26T00:06:39;6.20;99.90
14016;DHT22;7083;48.854;9.158;2024-02-26T00:09:06;6.20;99.90
14016;DHT22;7083;48.854;9.158;2024-02-26T00:11:35;6.20;99.90
14016;DHT22;7083;48.854;9.158;2024-02-26T00:14:03;6.20;99.90
14016;DHT22;7083;48.854;9.158;2024-02-26T00:16:29;6.20;99.90
14016;DHT22;7083;48.854;9.158;2024-02-26T00:18:56;6.20;99.90
14016;DHT22;7083;48.854;9.158;2024-02-26T00:21:23;6.20;99.90
14016;DHT22;7083;48.854;9.158;2024-02-26T00:23:50;6.10;99.90
14016;DHT22;7083;48.854;9.158;2024-02-26T00:26:16;6.20;99.90
14016;DHT22;7083;48.854;9.158;2024-02-26T00:28:44;6.20;99.90
14016;DHT22;7083;48.854;9.158;2024-02-26T00:31:11;6.20;99.90
14016;DHT22;7083;48.854;9.158;2024-02-26T00:33:38;6.20;99.90
14016;DHT22;7083;48.854;9.158;2024-02-26T00:36:05;6.10;99.90
14016;DHT22;7083;48.854;9.158;2024-02-26T00:38:32;6.10;99.90
14016;DHT22;7083;48.854;9.158;2024-02-26T00:40:59;6.10;99.90
14016;DHT22;7083;48.854;9.158;2024-02-26T00:43:25;6.10;99.90
14016;DHT22;7083;48.854;9.158;2024-02-26T00:45:53;6.10;99.90
14016;DHT22;7083;48.854;9.158;2024-02-26T00:48:20;6.10;99.90
14016;DHT22;7083;48.854;9.158;2024-02-26T00:50:47;6.10;99.90
14016;DHT22;7083;48.854;9.158;2024-02-26T00:53:13;6.10;99.90
14016;DHT22;7083;48.854;9.158;2024-02-26T00:55:40;6.10;99.90
14016;DHT22;7083;48.854;9.158;2024-02-26T00:58:07;6.10;99.90
14016;DHT22;7083;48.854;9.158;2024-02-26T01:00:33;6.20;99.90
14016;DHT22;7083;48.854;9.158;2024-02-26T01:03:01;6.20;99.90
14016;DHT22;7083;48.854;9.158;2024-02-26T01:05:29;6.20;99.90
14016;DHT22;7083;48.854;9.158;2024-02-26T01:07:56;6.20;99.90
14016;DHT22;7083;48.854;9.158;2024-02-26T01:10:22;6.20;99.90
14016;DHT22;7083;48.854;9.158;2024-02-26T01:12:49;7.30;99.90
14016;DHT22;7083;48.854;9.158;2024-02-26T01:15:16;6.20;99.90
14016;DHT22;7083;48.854;9.158;2024-02-26T01:17:44;6.20;99.90
14016;DHT22;7083;48.854;9.158;2024-02-26T01:20:12;6.30;99.90
14016;DHT22;7083;48.854;9.158;2024-02-26T01:22:39;6.30;99.90
14016;DHT22;7083;48.854;9.158;2024-02-26T01:25:06;6.30;99.90
14016;DHT22;7083;48.854;9.158;2024-02-26T01:27:35;6.30;99.90
14016;DHT22;7083;48.854;9.158;2024-02-26T01:30:01;6.30;99.90
14016;DHT22;7083;48.854;9.158;2024-02-26T01:32:29;6.30;99.90
14016;DHT22;7083;48.854;9.158;2024-02-26T01:34:56;6.40;99.90
14016;DHT22;7083;48.854;9.158;2024-02-26T01:37:24;6.30;99.90
14016;DHT22;7083;48.854;9.158;2024-02-26T01:39:51;6.30;99.90
14016;DHT22;7083;48.854;9.158;2024-02-26T01:42:18;6.30;99.90
14016;DHT22;7083;48.854;9.158;2024-02-26T01:44:44;6.30;99.90
14016;DHT22;7083;48.854;9.158;2024-02-26T01:47:12;6.30;99.90
14016;DHT22;7083;48.854;9.158;2024-02-26T01:49:40;6.30;99.90
14016;DHT22;7083;48.854;9.158;2024-02-26T01:52:08;6.30;99.90
14016;DHT22;7083;48.854;9.158;2024-02-26T01:54:38;6.30;99.90
14016;DHT22;7083;48.854;9.158;2024-02-26T01:57:06;6.30;99.90
14016;DHT22;7083;48.854;9.158;2024-02-26T01:59:34;6.30;99.90
14016;DHT22;7083;48.854;9.158;2024-02-26T02:02:03;6.30;99.90
14016;DHT22;7083;48.854;9.158;2024-02-26T02:04:31;6.30;99.90
14016;DHT22;7083;48.854;9.158;2024-02-26T02:07:00;6.30;99.90
14016;DHT22;7083;48.854;9.158;2024-02-26T02:09:27;6.30;99.90
14016;DHT22;7083;48.854;9.158;2024-02-26T02:11:56;6.30;99.90
14016;DHT22;7083;48.854;9.158;2024-02-26T02:14:22;6.30;99.90
14016;DHT22;7083;48.854;9.158;2024-02-26T02:16:50;6.40;99.90
14016;DHT22;7083;48.854;9.158;2024-02-26T02:19:17;6.40;99.90
14016;DHT22;7083;48.854;9.158;2024-02-26T02:21:45;6.40;99.90
14016;DHT22;7083;48.854;9.158;2024-02-26T02:24:11;6.30;99.90
14016;DHT22;7083;48.854;9.158;2024-02-26T02:26:38;6.40;99.90
14016;DHT22;7083;48.854;9.158;2024-02-26T02:29:06;6.40;99.90
14016;DHT22;7083;48.854;9.158;2024-02-26T02:31:33;6.40;99.90
14016;DHT22;7083;48.854;9.158;2024-02-26T02:34:00;6.40;99.90
14016;DHT22;7083;48.854;9.158;2024-02-26T02:36:27;6.40;99.90
14016;DHT22;7083;48.854;9.158;2024-02-26T02:38:55;6.40;99.90
14016;DHT22;7083;48.854;9.158;2024-02-26T02:41:22;6.40;99.90
14016;DHT22;7083;48.854;9.158;2024-02-26T02:43:48;6.50;99.90
14016;DHT22;7083;48.854;9.158;2024-02-26T02:46:15;6.50;99.90
14016;DHT22;7083;48.854;9.158;2024-02-26T02:48:42;6.50;99.90
14016;DHT22;7083;48.854;9.158;2024-02-26T02:51:09;6.50;99.90
14016;DHT22;7083;48.854;9.158;2024-02-26T02:53:36;6.50;99.90
14016;DHT22;7083;48.854;9.158;2024-02-26T02:56:05;6.50;99.90
14016;DHT22;7083;48.854;9.158;2024-02-26T02:58:31;6.50;99.90
14016;DHT22;7083;48.854;9.158;2024-02-26T03:00:58;6.60;99.90
14016;DHT22;7083;48.854;9.158;2024-02-26T03:03:26;6.60;99.90
14016;DHT22;7083;48.854;9.158;2024-02-26T03:05:54;6.60;99.90
14016;DHT22;7083;48.854;9.158;2024-02-26T03:08:21;6.60;99.90
14016;DHT22;7083;48.854;9.158;2024-02-26T03:10:47;6.60;99.90
14016;DHT22;7083;48.854;9.158;2024-02-26T03:13:15;6.60;99.90
14016;DHT22;7083;48.854;9.158;2024-02-26T03:15:42;6.70;99.90
14016;DHT22;7083;48.854;9.158;2024-02-26T03:18:09;7.60;99.90
14016;DHT22;7083;48.854;9.158;2024-02-26T03:20:35;6.70;99.90
14016;DHT22;7083;48.854;9.158;2024-02-26T03:23:02;6.70;99.90
14016;DHT22;7083;48.854;9.158;2024-02-26T03:25:29;6.70;99.90
14016;DHT22;7083;48.854;9.158;2024-02-26T03:27:56;6.70;99.90
14016;DHT22;7083;48.854;9.158;2024-02-26T03:30:24;6.80;99.90
14016;DHT22;7083;48.854;9.158;2024-02-26T03:32:50;6.80;99.90
14016;DHT22;7083;48.854;9.158;2024-02-26T03:35:17;6.70;99.90
14016;DHT22;7083;48.854;9.158;2024-02-26T03:37:45;6.70;99.90
14016;DHT22;7083;48.854;9.158;2024-02-26T03:40:13;6.70;99.90
14016;DHT22;7083;48.854;9.158;2024-02-26T03:42:40;6.70;99.90
14016;DHT22;7083;48.854;9.158;2024-02-26T03:45:07;6.70;99.90
14016;DHT22;7083;48.854;9.158;2024-02-26T03:47:38;6.80;99.90
14016;DHT22;7083;48.854;9.158;2024-02-26T03:50:06;6.80;99.90
14016;DHT22;7083;48.854;9.158;2024-02-26T03:52:33;6.80;99.90
14016;DHT22;7083;48.854;9.158;2024-02-26T03:54:59;6.80;99.90
14016;DHT22;7083;48.854;9.158;2024-02-26T03:57:26;6.70;99.90
14016;DHT22;7083;48.854;9.158;2024-02-26T03:59:53;6.70;99.90
14016;DHT22;7083;48.854;9.158;2024-02-26T04:02:19;6.70;99.90
14016;DHT22;7083;48.854;9.158;2024-02-26T04:04:49;6.70;99.90
14016;DHT22;7083;48.854;9.158;2024-02-26T04:07:16;6.70;99.90
14016;DHT22;7083;48.854;9.158;2024-02-26T04:09:43;6.60;99.90
14016;DHT22;7083;48.854;9.158;2024-02-26T04:12:09;6.60;99.90
14016;DHT22;7083;48.854;9.158;2024-02-26T04:14:36;6.60;99.90
14016;DHT22;7083;48.854;9.158;2024-02-26T04:17:03;6.60;99.90
14016;DHT22;7083;48.854;9.158;2024-02-26T04:19:30;6.60;99.90
14016;DHT22;7083;48.854;9.158;2024-02-26T04:21:58;6.60;99.90
14016;DHT22;7083;48.854;9.158;2024-02-26T04:24:25;6.60;99.90
14016;DHT22;7083;48.854;9.158;2024-02-26T04:26:52;6.60;99.90
14016;DHT22;7083;48.854;9.158;2024-02-26T04:29:19;6.50;99.90
14016;DHT22;7083;48.854;9.158;2024-02-26T04:31:45;6.50;99.90
14016;DHT22;7083;48.854;9.158;2024-02-26T04:34:13;6.50;99.90
14016;DHT22;7083;48.854;9.158;2024-02-26T04:36:40;6.50;99.90
14016;DHT22;7083;48.854;9.158;2024-02-26T04:39:08;6.50;99.90
14016;DHT22;7083;48.854;9.158;2024-02-26T04:41:36;6.40;99.90
14016;DHT22;7083;48.854;9.158;2024-02-26T04:44:03;6.40;99.90
14016;DHT22;7083;48.854;9.158;2024-02-26T04:46:30;6.40;99.90
14016;DHT22;7083;48.854;9.158;2024-02-26T04:48:56;6.40;99.90
14016;DHT22;7083;48.854;9.158;2024-02-26T04:51:23;6.40;99.90
14016;DHT22;7083;48.854;9.158;2024-02-26T04:53:50;6.40;99.90
14016;DHT22;7083;48.854;9.158;2024-02-26T04:56:20;6.40;99.90
14016;DHT22;7083;48.854;9.158;2024-02-26T04:58:47;6.40;99.90
14016;DHT22;7083;48.854;9.158;2024-02-26T05:01:13;6.40;99.90
14016;DHT22;7083;48.854;9.158;2024-02-26T05:03:41;6.40;99.90
14016;DHT22;7083;48.854;9.158;2024-02-26T05:06:08;6.40;99.90
14016;DHT22;7083;48.854;9.158;2024-02-26T05:08:35;6.40;99.90
14016;DHT22;7083;48.854;9.158;2024-02-26T05:11:04;6.40;99.90
14016;DHT22;7083;48.854;9.158;2024-02-26T05:13:32;6.40;99.90
14016;DHT22;7083;48.854;9.158;2024-02-26T05:15:58;6.40;99.90
14016;DHT22;7083;48.854;9.158;2024-02-26T05:18:25;6.40;99.90
14016;DHT22;7083;48.854;9.158;2024-02-26T05:20:52;6.30;99.90
14016;DHT22;7083;48.854;9.158;2024-02-26T05:23:19;6.40;99.90
14016;DHT22;7083;48.854;9.158;2024-02-26T05:25:45;6.40;99.90
14016;DHT22;7083;48.854;9.158;2024-02-26T05:28:13;6.30;99.90
14016;DHT22;7083;48.854;9.158;2024-02-26T05:30:42;6.40;99.90
14016;DHT22;7083;48.854;9.158;2024-02-26T05:33:09;6.30;99.90
14016;DHT22;7083;48.854;9.158;2024-02-26T05:35:35;6.40;99.90
14016;DHT22;7083;48.854;9.158;2024-02-26T05:38:02;6.40;99.90
14016;DHT22;7083;48.854;9.158;2024-02-26T05:40:29;6.70;99.90
14016;DHT22;7083;48.854;9.158;2024-02-26T05:42:56;6.40;99.90
14016;DHT22;7083;48.854;9.158;2024-02-26T05:45:23;6.40;99.90
14016;DHT22;7083;48.854;9.158;2024-02-26T05:47:51;6.40;99.90
14016;DHT22;7083;48.854;9.158;2024-02-26T05:50:17;6.40;99.90
14016;DHT22;7083;48.854;9.158;2024-02-26T05:52:44;6.40;99.90
14016;DHT22;7083;48.854;9.158;2024-02-26T05:55:11;6.50;99.90
14016;DHT22;7083;48.854;9.158;2024-02-26T05:57:38;6.50;99.90
14016;DHT22;7083;48.854;9.158;2024-02-26T06:00:06;6.50;99.90
14016;DHT22;7083;48.854;9.158;2024-02-26T06:02:33;6.40;99.90
14016;DHT22;7083;48.854;9.158;2024-02-26T06:05:01;6.40;99.90
14016;DHT22;7083;48.854;9.158;2024-02-26T06:07:28;6.40;99.90
14016;DHT22;7083;48.854;9.158;2024-02-26T06:09:55;6.40;99.90
14016;DHT22;7083;48.854;9.158;2024-02-26T06:12:21;6.40;99.90
14016;DHT22;7083;48.854;9.158;2024-02-26T06:14:48;6.40;99.90
14016;DHT22;7083;48.854;9.158;2024-02-26T06:17:15;6.40;99.90
14016;DHT22;7083;48.854;9.158;2024-02-26T06:19:42;6.40;99.90
14016;DHT22;7083;48.854;9.158;2024-02-26T06:22:10;6.30;99.90
14016;DHT22;7083;48.854;9.158;2024-02-26T06:24:37;6.30;99.90
14016;DHT22;7083;48.854;9.158;2024-02-26T06:27:03;6.20;99.90
14016;DHT22;7083;48.854;9.158;2024-02-26T06:29:30;6.20;99.90
14016;DHT22;7083;48.854;9.158;2024-02-26T06:31:57;6.20;99.90
14016;DHT22;7083;48.854;9.158;2024-02-26T06:34:23;6.20;99.90
14016;DHT22;7083;48.854;9.158;2024-02-26T06:36:50;6.10;99.90
14016;DHT22;7083;48.854;9.158;2024-02-26T06:39:18;6.10;99.90
14016;DHT22;7083;48.854;9.158;2024-02-26T06:41:45;6.00;99.90
14016;DHT22;7083;48.854;9.158;2024-02-26T06:44:13;6.00;99.90
14016;DHT22;7083;48.854;9.158;2024-02-26T06:46:40;6.00;99.90
14016;DHT22;7083;48.854;9.158;2024-02-26T06:49:06;6.00;99.90
14016;DHT22;7083;48.854;9.158;2024-02-26T06:51:33;6.00;99.90
14016;DHT22;7083;48.854;9.158;2024-02-26T06:54:00;6.00;99.90
14016;DHT22;7083;48.854;9.158;2024-02-26T06:56:28;6.10;99.90
14016;DHT22;7083;48.854;9.158;2024-02-26T06:58:55;6.10;99.90
14016;DHT22;7083;48.854;9.158;2024-02-26T07:01:21;6.10;99.90
14016;DHT22;7083;48.854;9.158;2024-02-26T07:03:48;6.20;99.90
14016;DHT22;7083;48.854;9.158;2024-02-26T07:06:15;6.20;99.90
14016;DHT22;7083;48.854;9.158;2024-02-26T07:08:41;6.30;99.90
14016;DHT22;7083;48.854;9.158;2024-02-26T07:11:08;6.30;99.90
14016;DHT22;7083;48.854;9.158;2024-02-26T07:13:36;6.40;99.90
14016;DHT22;7083;48.854;9.158;2024-02-26T07:16:04;6.50;99.90
14016;DHT22;7083;48.854;9.158;2024-02-26T07:18:31;6.60;99.90
14016;DHT22;7083;48.854;9.158;2024-02-26T07:20:57;6.70;99.90
14016;DHT22;7083;48.854;9.158;2024-02-26T07:23:24;6.80;99.90
14016;DHT22;7083;48.854;9.158;2024-02-26T07:25:51;6.90;99.90
14016;DHT22;7083;48.854;9.158;2024-02-26T07:28:18;6.90;99.90
14016;DHT22;7083;48.854;9.158;2024-02-26T07:30:46;7.00;99.90
14016;DHT22;7083;48.854;9.158;2024-02-26T07:33:13;7.10;99.90
14016;DHT22;7083;48.854;9.158;2024-02-26T07:35:40;7.10;99.90
14016;DHT22;7083;48.854;9.158;2024-02-26T07:38:07;7.20;99.90
14016;DHT22;7083;48.854;9.158;2024-02-26T07:40:33;7.20;99.90
14016;DHT22;7083;48.854;9.158;2024-02-26T07:43:00;7.20;99.90
14016;DHT22;7083;48.854;9.158;2024-02-26T07:45:27;7.20;99.90
14016;DHT22;7083;48.854;9.158;2024-02-26T07:47:55;7.20;99.90
14016;DHT22;7083;48.854;9.158;2024-02-26T07:50:21;7.30;99.90
14016;DHT22;7083;48.854;9.158;2024-02-26T07:52:48;7.30;99.90
14016;DHT22;7083;48.854;9.158;2024-02-26T07:55:16;7.30;99.90
14016;DHT22;7083;48.854;9.158;2024-02-26T07:57:44;7.40;99.90
14016;DHT22;7083;48.854;9.158;2024-02-26T08:00:12;7.40;99.90
14016;DHT22;7083;48.854;9.158;2024-02-26T08:02:42;7.50;99.90
14016;DHT22;7083;48.854;9.158;2024-02-26T08:05:10;7.50;99.90
14016;DHT22;7083;48.854;9.158;2024-02-26T08:07:38;7.60;99.90
14016;DHT22;7083;48.854;9.158;2024-02-26T08:10:05;7.60;99.90
14016;DHT22;7083;48.854;9.158;2024-02-26T08:12:31;7.70;99.90
14016;DHT22;7083;48.854;9.158;2024-02-26T08:14:59;7.70;99.90
14016;DHT22;7083;48.854;9.158;2024-02-26T08:17:25;7.80;99.90
14016;DHT22;7083;48.854;9.158;2024-02-26T08:19:52;7.90;99.90
14016;DHT22;7083;48.854;9.158;2024-02-26T08:22:20;7.90;99.90
14016;DHT22;7083;48.854;9.158;2024-02-26T08:24:47;8.00;99.90
14016;DHT22;7083;48.854;9.158;2024-02-26T08:27:14;8.00;99.90
14016;DHT22;7083;48.854;9.158;2024-02-26T08:29:40;8.10;99.90
14016;DHT22;7083;48.854;9.158;2024-02-26T08:32:07;8.20;99.90
14016;DHT22;7083;48.854;9.158;2024-02-26T08:34:34;8.30;99.90
14016;DHT22;7083;48.854;9.158;2024-02-26T08:37:01;8.40;99.90
14016;DHT22;7083;48.854;9.158;2024-02-26T08:39:29;8.50;99.90
14016;DHT22;7083;48.854;9.158;2024-02-26T08:41:55;8.60;99.90
14016;DHT22;7083;48.854;9.158;2024-02-26T08:44:22;8.70;99.90
14016;DHT22;7083;48.854;9.158;2024-02-26T08:46:48;8.70;99.90
14016;DHT22;7083;48.854;9.158;2024-02-26T08:49:16;8.80;99.90
14016;DHT22;7083;48.854;9.158;2024-02-26T08:51:43;8.90;99.90
14016;DHT22;7083;48.854;9.158;2024-02-26T08:54:09;8.90;99.90
14016;DHT22;7083;48.854;9.158;2024-02-26T08:56:37;9.00;99.90
14016;DHT22;7083;48.854;9.158;2024-02-26T08:59:04;9.10;99.90
14016;DHT22;7083;48.854;9.158;2024-02-26T09:01:31;9.30;99.90
14016;DHT22;7083;48.854;9.158;2024-02-26T09:03:58;9.70;99.90
14016;DHT22;7083;48.854;9.158;2024-02-26T09:06:24;9.50;99.90
14016;DHT22;7083;48.854;9.158;2024-02-26T09:08:51;9.50;99.90
14016;DHT22;7083;48.854;9.158;2024-02-26T09:11:18;9.50;99.90
14016;DHT22;7083;48.854;9.158;2024-02-26T09:13:46;10.40;99.90
14016;DHT22;7083;48.854;9.158;2024-02-26T09:16:13;9.60;99.90
14016;DHT22;7083;48.854;9.158;2024-02-26T09:18:40;9.60;99.90
14016;DHT22;7083;48.854;9.158;2024-02-26T09:21:07;9.60;99.90
14016;DHT22;7083;48.854;9.158;2024-02-26T09:23:33;9.60;99.90
14016;DHT22;7083;48.854;9.158;2024-02-26T09:26:00;9.60;99.90
14016;DHT22;7083;48.854;9.158;2024-02-26T09:28:27;9.70;99.90
14016;DHT22;7083;48.854;9.158;2024-02-26T09:30:58;9.90;99.90
14016;DHT22;7083;48.854;9.158;2024-02-26T09:33:24;10.00;99.90
14016;DHT22;7083;48.854;9.158;2024-02-26T09:35:51;10.10;99.90
14016;DHT22;7083;48.854;9.158;2024-02-26T09:38:18;10.20;99.90
14016;DHT22;7083;48.854;9.158;2024-02-26T09:40:45;10.20;99.90
14016;DHT22;7083;48.854;9.158;2024-02-26T09:43:14;10.20;99.90
14016;DHT22;7083;48.854;9.158;2024-02-26T09:45:42;10.20;99.90
14016;DHT22;7083;48.854;9.158;2024-02-26T09:48:10;10.30;99.40
14016;DHT22;7083;48.854;9.158;2024-02-26T09:50:40;10.40;98.60
14016;DHT22;7083;48.854;9.158;2024-02-26T09:53:08;10.40;98.50
14016;DHT22;7083;48.854;9.158;2024-02-26T09:55:36;10.50;98.70
14016;DHT22;7083;48.854;9.158;2024-02-26T09:58:05;10.60;98.40
14016;DHT22;7083;48.854;9.158;2024-02-26T10:00:32;10.70;98.90
14016;DHT22;7083;48.854;9.158;2024-02-26T10:03:03;10.90;99.20
14016;DHT22;7083;48.854;9.158;2024-02-26T10:05:32;11.10;99.10
14016;DHT22;7083;48.854;9.158;2024-02-26T10:08:00;11.20;99.00
14016;DHT22;7083;48.854;9.158;2024-02-26T10:10:28;11.50;98.50
14016;DHT22;7083;48.854;9.158;2024-02-26T10:12:55;11.60;97.90
14016;DHT22;7083;48.854;9.158;2024-02-26T10:15:22;11.70;97.70
14016;DHT22;7083;48.854;9.158;2024-02-26T10:17:48;11.80;97.20
14016;DHT22;7083;48.854;9.158;2024-02-26T10:20:16;11.80;96.80
14016;DHT22;7083;48.854;9.158;2024-02-26T10:22:45;11.90;96.80
14016;DHT22;7083;48.854;9.158;2024-02-26T10:25:14;12.00;96.30
14016;DHT22;7083;48.854;9.158;2024-02-26T10:27:41;12.00;95.40
14016;DHT22;7083;48.854;9.158;2024-02-26T10:30:16;12.10;95.80
14016;DHT22;7083;48.854;9.158;2024-02-26T10:32:45;12.20;95.50
14016;DHT22;7083;48.854;9.158;2024-02-26T10:35:12;12.40;95.20
14016;DHT22;7083;48.854;9.158;2024-02-26T10:37:40;12.50;94.90
14016;DHT22;7083;48.854;9.158;2024-02-26T10:40:10;12.60;94.50
14016;DHT22;7083;48.854;9.158;2024-02-26T10:42:36;12.70;94.30
14016;DHT22;7083;48.854;9.158;2024-02-26T10:45:04;12.70;94.10
14016;DHT22;7083;48.854;9.158;2024-02-26T10:47:31;12.90;93.70
14016;DHT22;7083;48.854;9.158;2024-02-26T10:49:59;13.10;93.00
14016;DHT22;7083;48.854;9.158;2024-02-26T10:52:26;13.10;92.90
14016;DHT22;7083;48.854;9.158;2024-02-26T10:54:54;13.20;92.10
14016;DHT22;7083;48.854;9.158;2024-02-26T10:57:24;13.30;92.50
14016;DHT22;7083;48.854;9.158;2024-02-26T10:59:51;13.40;92.40
14016;DHT22;7083;48.854;9.158;2024-02-26T11:02:20;13.40;92.50
14016;DHT22;7083;48.854;9.158;2024-02-26T11:04:47;13.40;91.50
14016;DHT22;7083;48.854;9.158;2024-02-26T11:07:15;13.30;91.60
14016;DHT22;7083;48.854;9.158;2024-02-26T11:09:43;13.40;91.30
14016;DHT22;7083;48.854;9.158;2024-02-26T11:12:13;13.30;90.40
14016;DHT22;7083;48.854;9.158;2024-02-26T11:14:44;13.10;87.30
14016;DHT22;7083;48.854;9.158;2024-02-26T11:17:13;13.00;88.10
14016;DHT22;7083;48.854;9.158;2024-02-26T11:19:43;13.00;88.30
14016;DHT22;7083;48.854;9.158;2024-02-26T11:22:10;12.90;88.20
14016;DHT22;7083;48.854;9.158;2024-02-26T11:24:37;12.80;87.50
14016;DHT22;7083;48.854;9.158;2024-02-26T11:27:07;13.30;88.50
14016;DHT22;7083;48.854;9.158;2024-02-26T11:29:40;12.70;88.20
14016;DHT22;7083;48.854;9.158;2024-02-26T11:32:10;12.60;86.60
14016;DHT22;7083;48.854;9.158;2024-02-26T11:34:38;12.50;87.00
14016;DHT22;7083;48.854;9.158;2024-02-26T11:37:11;12.50;86.80
14016;DHT22;7083;48.854;9.158;2024-02-26T11:39:40;12.40;87.30
14016;DHT22;7083;48.854;9.158;2024-02-26T11:42:08;12.40;87.80
14016;DHT22;7083;48.854;9.158;2024-02-26T11:44:35;12.50;88.00
14016;DHT22;7083;48.854;9.158;2024-02-26T11:47:11;12.60;87.10
14016;DHT22;7083;48.854;9.158;2024-02-26T11:49:38;12.70;86.30
14016;DHT22;7083;48.854;9.158;2024-02-26T11:52:07;12.80;86.60
14016;DHT22;7083;48.854;9.158;2024-02-26T11:54:44;12.90;86.20
14016;DHT22;7083;48.854;9.158;2024-02-26T11:57:27;13.40;86.00
14016;DHT22;7083;48.854;9.158;2024-02-26T11:59:54;13.40;85.50
14016;DHT22;7083;48.854;9.158;2024-02-26T12:02:44;13.40;84.10
14016;DHT22;7083;48.854;9.158;2024-02-26T12:05:13;13.40;83.70
14016;DHT22;7083;48.854;9.158;2024-02-26T12:07:44;13.40;84.10
14016;DHT22;7083;48.854;9.158;2024-02-26T12:10:23;13.30;84.10
14016;DHT22;7083;48.854;9.158;2024-02-26T12:12:58;13.30;83.70
14016;DHT22;7083;48.854;9.158;2024-02-26T12:15:30;13.20;84.00
14016;DHT22;7083;48.854;9.158;2024-02-26T12:18:01;13.30;83.40
14016;DHT22;7083;48.854;9.158;2024-02-26T12:20:28;13.40;83.90
14016;DHT22;7083;48.854;9.158;2024-02-26T12:22:55;13.50;84.10
14016;DHT22;7083;48.854;9.158;2024-02-26T12:25:24;13.70;84.50
14016;DHT22;7083;48.854;9.158;2024-02-26T12:27:52;13.90;83.20
14016;DHT22;7083;48.854;9.158;2024-02-26T12:30:19;14.00;80.70
14016;DHT22;7083;48.854;9.158;2024-02-26T12:32:46;14.10;81.20
14016;DHT22;7083;48.854;9.158;2024-02-26T12:35:13;14.10;80.50
14016;DHT22;7083;48.854;9.158;2024-02-26T12:37:40;14.30;82.90
14016;DHT22;7083;48.854;9.158;2024-02-26T12:40:09;14.40;80.10
14016;DHT22;7083;48.854;9.158;2024-02-26T12:42:36;14.60;80.10
14016;DHT22;7083;48.854;9.158;2024-02-26T12:45:05;14.70;81.20
14016;DHT22;7083;48.854;9.158;2024-02-26T12:47:35;14.80;80.00
14016;DHT22;7083;48.854;9.158;2024-02-26T12:50:02;14.90;79.90
14016;DHT22;7083;48.854;9.158;2024-02-26T12:52:31;15.10;79.90
14016;DHT22;7083;48.854;9.158;2024-02-26T12:54:58;15.30;79.00
14016;DHT22;7083;48.854;9.158;2024-02-26T12:57:26;15.30;77.20
14016;DHT22;7083;48.854;9.158;2024-02-26T12:59:54;15.30;76.90
14016;DHT22;7083;48.854;9.158;2024-02-26T13:02:21;15.30;76.40
14016;DHT22;7083;48.854;9.158;2024-02-26T13:04:48;15.20;76.60
14016;DHT22;7083;48.854;9.158;2024-02-26T13:07:15;15.30;76.80
14016;DHT22;7083;48.854;9.158;2024-02-26T13:09:43;15.30;77.50
14016;DHT22;7083;48.854;9.158;2024-02-26T13:12:10;15.40;77.10
14016;DHT22;7083;48.854;9.158;2024-02-26T13:14:38;15.50;78.30
14016;DHT22;7083;48.854;9.158;2024-02-26T13:17:05;15.70;77.90
14016;DHT22;7083;48.854;9.158;2024-02-26T13:19:32;15.80;77.00
14016;DHT22;7083;48.854;9.158;2024-02-26T13:22:04;15.90;77.00
14016;DHT22;7083;48.854;9.158;2024-02-26T13:24:31;16.10;76.60
14016;DHT22;7083;48.854;9.158;2024-02-26T13:26:59;16.10;75.40
14016;DHT22;7083;48.854;9.158;2024-02-26T13:29:28;16.10;74.60
14016;DHT22;7083;48.854;9.158;2024-02-26T13:31:55;15.80;73.70
14016;DHT22;7083;48.854;9.158;2024-02-26T13:34:24;15.80;73.50
14016;DHT22;7083;48.854;9.158;2024-02-26T13:36:51;15.70;75.30
14016;DHT22;7083;48.854;9.158;2024-02-26T13:39:22;15.60;75.30
14016;DHT22;7083;48.854;9.158;2024-02-26T13:41:49;15.80;75.60
14016;DHT22;7083;48.854;9.158;2024-02-26T13:44:17;15.90;76.90
14016;DHT22;7083;48.854;9.158;2024-02-26T13:46:44;16.00;77.00
14016;DHT22;7083;48.854;9.158;2024-02-26T13:49:11;16.10;77.10
14016;DHT22;7083;48.854;9.158;2024-02-26T13:51:37;15.90;73.60
14016;DHT22;7083;48.854;9.158;2024-02-26T13:54:04;15.60;73.70
14016;DHT22;7083;48.854;9.158;2024-02-26T13:56:31;15.50;73.30
14016;DHT22;7083;48.854;9.158;2024-02-26T13:58:58;15.40;74.60
14016;DHT22;7083;48.854;9.158;2024-02-26T14:01:26;15.30;74.60
14016;DHT22;7083;48.854;9.158;2024-02-26T14:03:53;15.40;76.00
14016;DHT22;7083;48.854;9.158;2024-02-26T14:06:23;15.50;76.30
14016;DHT22;7083;48.854;9.158;2024-02-26T14:08:50;15.50;76.10
14016;DHT22;7083;48.854;9.158;2024-02-26T14:11:16;15.60;75.60
14016;DHT22;7083;48.854;9.158;2024-02-26T14:13:43;15.70;74.60
14016;DHT22;7083;48.854;9.158;2024-02-26T14:16:12;15.90;72.90
14016;DHT22;7083;48.854;9.158;2024-02-26T14:18:40;15.90;73.20
14016;DHT22;7083;48.854;9.158;2024-02-26T14:21:09;15.80;72.90
14016;DHT22;7083;48.854;9.158;2024-02-26T14:23:36;15.80;73.10
14016;DHT22;7083;48.854;9.158;2024-02-26T14:26:03;16.00;73.80
14016;DHT22;7083;48.854;9.158;2024-02-26T14:28:33;16.30;73.20
14016;DHT22;7083;48.854;9.158;2024-02-26T14:31:00;18.20;74.80
14016;DHT22;7083;48.854;9.158;2024-02-26T14:33:27;16.70;70.90
14016;DHT22;7083;48.854;9.158;2024-02-26T14:35:55;17.00;71.70
14016;DHT22;7083;48.854;9.158;2024-02-26T14:38:21;16.40;71.00
14016;DHT22;7083;48.854;9.158;2024-02-26T14:40:49;16.40;72.60
14016;DHT22;7083;48.854;9.158;2024-02-26T14:43:15;16.40;72.30
14016;DHT22;7083;48.854;9.158;2024-02-26T14:45:42;16.50;73.30
14016;DHT22;7083;48.854;9.158;2024-02-26T14:48:09;17.10;72.50
14016;DHT22;7083;48.854;9.158;2024-02-26T14:50:36;17.40;72.30
14016;DHT22;7083;48.854;9.158;2024-02-26T14:53:04;16.50;72.60
14016;DHT22;7083;48.854;9.158;2024-02-26T14:55:31;16.30;72.70
14016;DHT22;7083;48.854;9.158;2024-02-26T14:57:58;16.20;73.10
14016;DHT22;7083;48.854;9.158;2024-02-26T15:00:25;16.00;72.50
14016;DHT22;7083;48.854;9.158;2024-02-26T15:02:52;15.80;72.80
14016;DHT22;7083;48.854;9.158;2024-02-26T15:05:20;15.90;74.10
14016;DHT22;7083;48.854;9.158;2024-02-26T15:07:46;15.90;74.20
14016;DHT22;7083;48.854;9.158;2024-02-26T15:10:15;16.40;74.90
14016;DHT22;7083;48.854;9.158;2024-02-26T15:12:41;16.00;73.30
14016;DHT22;7083;48.854;9.158;2024-02-26T15:15:08;15.70;73.90
14016;DHT22;7083;48.854;9.158;2024-02-26T15:17:35;15.60;75.30
14016;DHT22;7083;48.854;9.158;2024-02-26T15:20:02;15.40;76.00
14016;DHT22;7083;48.854;9.158;2024-02-26T15:22:31;15.20;77.80
14016;DHT22;7083;48.854;9.158;2024-02-26T15:24:57;14.90;76.60
14016;DHT22;7083;48.854;9.158;2024-02-26T15:27:25;14.80;77.00
14016;DHT22;7083;48.854;9.158;2024-02-26T15:29:52;14.80;77.60
14016;DHT22;7083;48.854;9.158;2024-02-26T15:32:24;15.50;79.60
14016;DHT22;7083;48.854;9.158;2024-02-26T15:34:52;14.50;77.80
14016;DHT22;7083;48.854;9.158;2024-02-26T15:37:18;14.40;78.80
14016;DHT22;7083;48.854;9.158;2024-02-26T15:39:46;14.30;78.80
14016;DHT22;7083;48.854;9.158;2024-02-26T15:42:12;14.20;79.40
14016;DHT22;7083;48.854;9.158;2024-02-26T15:44:41;14.10;79.70
14016;DHT22;7083;48.854;9.158;2024-02-26T15:47:07;14.00;79.50
14016;DHT22;7083;48.854;9.158;2024-02-26T15:49:34;14.10;80.10
14016;DHT22;7083;48.854;9.158;2024-02-26T15:52:02;13.70;80.40
14016;DHT22;7083;48.854;9.158;2024-02-26T15:54:29;14.00;81.60
14016;DHT22;7083;48.854;9.158;2024-02-26T15:56:56;13.40;82.00